sensor_id;sensor_type;location;lat;lon;timestamp;P1;durP1;ratioP1;P2;durP2;ratioP2
75071;SDS011;63651;55.728;38.022;2023-02-15T00:00:39;1.20;;;0.30;;
75071;SDS011;63651;55.728;38.022;2023-02-15T00:05:40;1.48;;;0.38;;
75071;SDS011;63651;55.728;38.022;2023-02-15T00:10:41;0.70;;;0.20;;
75071;SDS011;63651;55.728;38.022;2023-02-15T00:15:42;0.68;;;0.20;;
75071;SDS011;63651;55.728;38.022;2023-02-15T00:20:43;0.85;;;0.22;;
75071;SDS011;63651;55.728;38.022;2023-02-15T00:25:44;1.70;;;0.50;;
75071;SDS011;63651;55.728;38.022;2023-02-15T00:30:45;1.17;;;0.40;;
75071;SDS011;63651;55.728;38.022;2023-02-15T00:35:46;1.25;;;0.13;;
75071;SDS011;63651;55.728;38.022;2023-02-15T00:40:51;0.60;;;0.20;;
75071;SDS011;63651;55.728;38.022;2023-02-15T00:45:55;1.42;;;0.20;;
75071;SDS011;63651;55.728;38.022;2023-02-15T00:50:57;1.63;;;0.52;;
75071;SDS011;63651;55.728;38.022;2023-02-15T00:55:59;1.70;;;0.32;;
75071;SDS011;63651;55.728;38.022;2023-02-15T01:01:08;1.60;;;0.50;;
75071;SDS011;63651;55.728;38.022;2023-02-15T01:06:11;1.38;;;0.30;;
75071;SDS011;63651;55.728;38.022;2023-02-15T01:11:15;2.53;;;0.40;;
75071;SDS011;63651;55.728;38.022;2023-02-15T01:16:26;1.35;;;0.60;;
75071;SDS011;63651;55.728;38.022;2023-02-15T01:21:28;0.63;;;0.20;;
75071;SDS011;63651;55.728;38.022;2023-02-15T01:26:29;1.63;;;0.40;;
75071;SDS011;63651;55.728;38.022;2023-02-15T01:31:30;1.65;;;0.25;;
75071;SDS011;63651;55.728;38.022;2023-02-15T01:36:33;0.85;;;0.52;;
75071;SDS011;63651;55.728;38.022;2023-02-15T01:41:34;1.35;;;0.40;;
75071;SDS011;63651;55.728;38.022;2023-02-15T01:46:40;1.00;;;0.40;;
75071;SDS011;63651;55.728;38.022;2023-02-15T01:51:52;1.63;;;0.40;;
75071;SDS011;63651;55.728;38.022;2023-02-15T01:56:54;1.08;;;0.10;;
75071;SDS011;63651;55.728;38.022;2023-02-15T02:02:01;2.55;;;0.90;;
75071;SDS011;63651;55.728;38.022;2023-02-15T02:07:04;0.52;;;0.20;;
75071;SDS011;63651;55.728;38.022;2023-02-15T02:12:07;0.90;;;0.30;;
75071;SDS011;63651;55.728;38.022;2023-02-15T02:17:12;2.72;;;0.43;;
75071;SDS011;63651;55.728;38.022;2023-02-15T02:33:28;1.48;;;0.20;;
75071;SDS011;63651;55.728;38.022;2023-02-15T02:38:56;0.75;;;0.30;;
75071;SDS011;63651;55.728;38.022;2023-02-15T02:49:12;1.58;;;0.40;;
75071;SDS011;63651;55.728;38.022;2023-02-15T02:54:14;1.20;;;0.15;;
75071;SDS011;63651;55.728;38.022;2023-02-15T02:59:20;1.70;;;0.30;;
75071;SDS011;63651;55.728;38.022;2023-02-15T03:04:28;1.45;;;0.45;;
75071;SDS011;63651;55.728;38.022;2023-02-15T03:09:37;1.00;;;0.40;;
75071;SDS011;63651;55.728;38.022;2023-02-15T03:14:44;0.98;;;0.30;;
75071;SDS011;63651;55.728;38.022;2023-02-15T03:19:52;1.55;;;0.20;;
75071;SDS011;63651;55.728;38.022;2023-02-15T03:30:17;1.08;;;0.22;;
75071;SDS011;63651;55.728;38.022;2023-02-15T03:35:22;1.15;;;0.45;;
75071;SDS011;63651;55.728;38.022;2023-02-15T03:40:28;0.95;;;0.20;;
75071;SDS011;63651;55.728;38.022;2023-02-15T03:45:51;3.42;;;0.30;;
75071;SDS011;63651;55.728;38.022;2023-02-15T03:56:22;0.88;;;0.47;;
75071;SDS011;63651;55.728;38.022;2023-02-15T04:01:27;2.00;;;0.40;;
75071;SDS011;63651;55.728;38.022;2023-02-15T04:06:57;3.28;;;1.35;;
75071;SDS011;63651;55.728;38.022;2023-02-15T04:11:59;5.60;;;1.75;;
75071;SDS011;63651;55.728;38.022;2023-02-15T04:17:00;4.85;;;2.40;;
75071;SDS011;63651;55.728;38.022;2023-02-15T04:22:01;8.13;;;2.83;;
75071;SDS011;63651;55.728;38.022;2023-02-15T04:27:20;6.95;;;2.60;;
75071;SDS011;63651;55.728;38.022;2023-02-15T04:32:21;7.03;;;2.45;;
75071;SDS011;63651;55.728;38.022;2023-02-15T04:37:22;5.35;;;2.10;;
75071;SDS011;63651;55.728;38.022;2023-02-15T04:42:26;7.40;;;2.50;;
75071;SDS011;63651;55.728;38.022;2023-02-15T04:47:28;5.45;;;1.85;;
75071;SDS011;63651;55.728;38.022;2023-02-15T04:52:29;6.60;;;1.88;;
75071;SDS011;63651;55.728;38.022;2023-02-15T04:57:30;4.97;;;2.10;;
75071;SDS011;63651;55.728;38.022;2023-02-15T05:02:32;7.25;;;2.17;;
75071;SDS011;63651;55.728;38.022;2023-02-15T05:07:33;8.38;;;2.53;;
75071;SDS011;63651;55.728;38.022;2023-02-15T05:12:34;7.50;;;2.50;;
75071;SDS011;63651;55.728;38.022;2023-02-15T05:17:35;9.05;;;2.50;;
75071;SDS011;63651;55.728;38.022;2023-02-15T05:22:36;6.72;;;2.33;;
75071;SDS011;63651;55.728;38.022;2023-02-15T05:27:37;6.05;;;1.92;;
75071;SDS011;63651;55.728;38.022;2023-02-15T05:32:57;4.35;;;1.80;;
75071;SDS011;63651;55.728;38.022;2023-02-15T05:37:58;4.93;;;1.65;;
75071;SDS011;63651;55.728;38.022;2023-02-15T05:42:59;5.78;;;1.70;;
75071;SDS011;63651;55.728;38.022;2023-02-15T05:48:00;14.18;;;5.60;;
75071;SDS011;63651;55.728;38.022;2023-02-15T05:53:01;29.17;;;6.68;;
75071;SDS011;63651;55.728;38.022;2023-02-15T05:58:03;16.58;;;4.22;;
75071;SDS011;63651;55.728;38.022;2023-02-15T06:03:04;15.23;;;4.32;;
75071;SDS011;63651;55.728;38.022;2023-02-15T06:08:05;12.18;;;3.03;;
75071;SDS011;63651;55.728;38.022;2023-02-15T06:13:06;9.45;;;2.75;;
75071;SDS011;63651;55.728;38.022;2023-02-15T06:18:07;8.20;;;2.35;;
75071;SDS011;63651;55.728;38.022;2023-02-15T06:23:08;8.65;;;2.30;;
75071;SDS011;63651;55.728;38.022;2023-02-15T06:28:09;6.35;;;1.75;;
75071;SDS011;63651;55.728;38.022;2023-02-15T06:33:10;6.80;;;1.90;;
75071;SDS011;63651;55.728;38.022;2023-02-15T06:38:12;3.88;;;1.50;;
75071;SDS011;63651;55.728;38.022;2023-02-15T06:43:13;5.78;;;1.60;;
75071;SDS011;63651;55.728;38.022;2023-02-15T06:48:14;4.57;;;0.88;;
75071;SDS011;63651;55.728;38.022;2023-02-15T06:53:15;2.97;;;1.00;;
75071;SDS011;63651;55.728;38.022;2023-02-15T06:58:17;6.25;;;1.23;;
75071;SDS011;63651;55.728;38.022;2023-02-15T07:03:19;2.70;;;0.88;;
75071;SDS011;63651;55.728;38.022;2023-02-15T07:08:20;3.33;;;0.88;;
75071;SDS011;63651;55.728;38.022;2023-02-15T07:13:21;1.42;;;0.80;;
75071;SDS011;63651;55.728;38.022;2023-02-15T07:18:23;1.88;;;0.90;;
75071;SDS011;63651;55.728;38.022;2023-02-15T07:23:24;2.90;;;1.00;;
75071;SDS011;63651;55.728;38.022;2023-02-15T07:28:25;2.47;;;1.10;;
75071;SDS011;63651;55.728;38.022;2023-02-15T07:33:27;2.85;;;1.25;;
75071;SDS011;63651;55.728;38.022;2023-02-15T07:38:32;3.35;;;1.00;;
75071;SDS011;63651;55.728;38.022;2023-02-15T07:43:37;1.80;;;0.75;;
75071;SDS011;63651;55.728;38.022;2023-02-15T07:48:41;1.55;;;0.85;;
75071;SDS011;63651;55.728;38.022;2023-02-15T07:53:42;1.83;;;0.90;;
75071;SDS011;63651;55.728;38.022;2023-02-15T07:58:45;2.38;;;1.67;;
75071;SDS011;63651;55.728;38.022;2023-02-15T08:03:53;2.47;;;1.52;;
75071;SDS011;63651;55.728;38.022;2023-02-15T08:08:55;3.15;;;1.23;;
75071;SDS011;63651;55.728;38.022;2023-02-15T08:24:10;3.58;;;0.90;;
75071;SDS011;63651;55.728;38.022;2023-02-15T08:29:18;1.38;;;0.93;;
75071;SDS011;63651;55.728;38.022;2023-02-15T08:34:23;2.13;;;0.95;;
75071;SDS011;63651;55.728;38.022;2023-02-15T08:39:24;2.72;;;1.10;;
75071;SDS011;63651;55.728;38.022;2023-02-15T08:44:25;2.60;;;1.10;;
75071;SDS011;63651;55.728;38.022;2023-02-15T08:49:29;2.70;;;0.90;;
75071;SDS011;63651;55.728;38.022;2023-02-15T08:54:33;2.20;;;0.90;;
75071;SDS011;63651;55.728;38.022;2023-02-15T08:59:34;1.40;;;0.85;;
75071;SDS011;63651;55.728;38.022;2023-02-15T09:04:35;1.13;;;0.68;;
75071;SDS011;63651;55.728;38.022;2023-02-15T09:09:36;1.45;;;0.60;;
75071;SDS011;63651;55.728;38.022;2023-02-15T09:14:37;1.77;;;0.80;;
75071;SDS011;63651;55.728;38.022;2023-02-15T09:19:38;1.95;;;0.88;;
75071;SDS011;63651;55.728;38.022;2023-02-15T09:24:39;1.77;;;0.50;;
75071;SDS011;63651;55.728;38.022;2023-02-15T09:29:40;1.42;;;0.55;;
75071;SDS011;63651;55.728;38.022;2023-02-15T09:34:41;1.88;;;0.68;;
75071;SDS011;63651;55.728;38.022;2023-02-15T09:39:44;1.75;;;0.68;;
75071;SDS011;63651;55.728;38.022;2023-02-15T10:00:44;1.70;;;0.50;;
75071;SDS011;63651;55.728;38.022;2023-02-15T10:27:20;1.15;;;0.40;;
75071;SDS011;63651;55.728;38.022;2023-02-15T10:32:24;1.30;;;0.60;;
75071;SDS011;63651;55.728;38.022;2023-02-15T10:37:36;1.50;;;0.50;;
75071;SDS011;63651;55.728;38.022;2023-02-15T10:53:52;1.63;;;0.40;;
75071;SDS011;63651;55.728;38.022;2023-02-15T11:09:43;0.90;;;0.30;;
75071;SDS011;63651;55.728;38.022;2023-02-15T11:14:58;1.33;;;0.43;;
75071;SDS011;63651;55.728;38.022;2023-02-15T11:25:18;1.00;;;0.40;;
75071;SDS011;63651;55.728;38.022;2023-02-15T11:30:24;1.25;;;0.40;;
75071;SDS011;63651;55.728;38.022;2023-02-15T11:35:31;0.50;;;0.20;;
75071;SDS011;63651;55.728;38.022;2023-02-15T11:40:51;1.20;;;0.60;;
75071;SDS011;63651;55.728;38.022;2023-02-15T11:45:59;1.23;;;0.28;;
75071;SDS011;63651;55.728;38.022;2023-02-15T11:51:01;1.25;;;0.38;;
75071;SDS011;63651;55.728;38.022;2023-02-15T11:56:04;1.42;;;0.38;;
75071;SDS011;63651;55.728;38.022;2023-02-15T12:06:35;1.20;;;0.22;;
75071;SDS011;63651;55.728;38.022;2023-02-15T12:11:41;1.48;;;0.45;;
75071;SDS011;63651;55.728;38.022;2023-02-15T12:16:50;0.60;;;0.30;;
75071;SDS011;63651;55.728;38.022;2023-02-15T12:21:54;0.73;;;0.40;;
75071;SDS011;63651;55.728;38.022;2023-02-15T12:27:05;0.50;;;0.40;;
75071;SDS011;63651;55.728;38.022;2023-02-15T12:32:17;1.50;;;0.30;;
75071;SDS011;63651;55.728;38.022;2023-02-15T12:37:27;1.20;;;0.40;;
75071;SDS011;63651;55.728;38.022;2023-02-15T12:42:42;0.90;;;0.30;;
75071;SDS011;63651;55.728;38.022;2023-02-15T12:47:45;1.45;;;0.40;;
75071;SDS011;63651;55.728;38.022;2023-02-15T12:52:47;1.02;;;0.30;;
75071;SDS011;63651;55.728;38.022;2023-02-15T12:57:57;1.70;;;0.40;;
75071;SDS011;63651;55.728;38.022;2023-02-15T13:03:14;1.35;;;0.28;;
75071;SDS011;63651;55.728;38.022;2023-02-15T13:13:54;1.92;;;0.30;;
75071;SDS011;63651;55.728;38.022;2023-02-15T13:19:04;0.50;;;0.20;;
75071;SDS011;63651;55.728;38.022;2023-02-15T13:24:17;0.75;;;0.25;;
75071;SDS011;63651;55.728;38.022;2023-02-15T13:29:27;0.82;;;0.20;;
75071;SDS011;63651;55.728;38.022;2023-02-15T13:34:33;0.70;;;0.38;;
75071;SDS011;63651;55.728;38.022;2023-02-15T13:56:21;0.50;;;0.15;;
75071;SDS011;63651;55.728;38.022;2023-02-15T14:01:44;1.13;;;0.32;;
75071;SDS011;63651;55.728;38.022;2023-02-15T14:07:19;0.82;;;0.35;;
75071;SDS011;63651;55.728;38.022;2023-02-15T14:18:46;0.60;;;0.22;;
75071;SDS011;63651;55.728;38.022;2023-02-15T14:24:01;0.50;;;0.20;;
75071;SDS011;63651;55.728;38.022;2023-02-15T14:45:50;0.52;;;0.30;;
75071;SDS011;63651;55.728;38.022;2023-02-15T14:50:54;0.60;;;0.10;;
75071;SDS011;63651;55.728;38.022;2023-02-15T15:01:06;0.52;;;0.30;;
75071;SDS011;63651;55.728;38.022;2023-02-15T15:06:20;0.70;;;0.20;;
75071;SDS011;63651;55.728;38.022;2023-02-15T15:26:50;0.60;;;0.30;;
75071;SDS011;63651;55.728;38.022;2023-02-15T15:32:30;0.70;;;0.40;;
75071;SDS011;63651;55.728;38.022;2023-02-15T15:43:39;0.50;;;0.17;;
75071;SDS011;63651;55.728;38.022;2023-02-15T15:48:52;0.73;;;0.20;;
75071;SDS011;63651;55.728;38.022;2023-02-15T15:53:54;0.40;;;0.20;;
75071;SDS011;63651;55.728;38.022;2023-02-15T15:59:17;0.50;;;0.15;;
75071;SDS011;63651;55.728;38.022;2023-02-15T16:04:25;0.60;;;0.32;;
75071;SDS011;63651;55.728;38.022;2023-02-15T16:09:30;0.52;;;0.22;;
75071;SDS011;63651;55.728;38.022;2023-02-15T16:14:34;0.57;;;0.20;;
75071;SDS011;63651;55.728;38.022;2023-02-15T16:19:40;1.25;;;0.20;;
75071;SDS011;63651;55.728;38.022;2023-02-15T16:30:33;0.52;;;0.25;;
75071;SDS011;63651;55.728;38.022;2023-02-15T16:35:36;0.70;;;0.35;;
75071;SDS011;63651;55.728;38.022;2023-02-15T16:40:52;0.90;;;0.30;;
75071;SDS011;63651;55.728;38.022;2023-02-15T16:46:04;0.77;;;0.28;;
75071;SDS011;63651;55.728;38.022;2023-02-15T16:51:07;1.02;;;0.40;;
75071;SDS011;63651;55.728;38.022;2023-02-15T16:56:09;1.38;;;0.60;;
75071;SDS011;63651;55.728;38.022;2023-02-15T17:01:11;1.83;;;0.93;;
75071;SDS011;63651;55.728;38.022;2023-02-15T17:06:22;2.45;;;1.02;;
75071;SDS011;63651;55.728;38.022;2023-02-15T17:16:36;1.30;;;0.63;;
75071;SDS011;63651;55.728;38.022;2023-02-15T17:21:42;1.42;;;0.80;;
75071;SDS011;63651;55.728;38.022;2023-02-15T17:26:50;1.10;;;0.70;;
75071;SDS011;63651;55.728;38.022;2023-02-15T17:32:00;2.00;;;0.70;;
75071;SDS011;63651;55.728;38.022;2023-02-15T17:37:02;1.20;;;0.70;;
75071;SDS011;63651;55.728;38.022;2023-02-15T17:42:03;1.77;;;0.80;;
75071;SDS011;63651;55.728;38.022;2023-02-15T17:47:04;1.25;;;0.80;;
75071;SDS011;63651;55.728;38.022;2023-02-15T17:52:08;2.45;;;0.63;;
75071;SDS011;63651;55.728;38.022;2023-02-15T17:57:17;1.65;;;0.70;;
75071;SDS011;63651;55.728;38.022;2023-02-15T18:02:18;1.80;;;0.68;;
75071;SDS011;63651;55.728;38.022;2023-02-15T18:07:37;1.60;;;0.63;;
75071;SDS011;63651;55.728;38.022;2023-02-15T18:12:57;2.30;;;0.98;;
75071;SDS011;63651;55.728;38.022;2023-02-15T18:17:58;2.33;;;0.90;;
75071;SDS011;63651;55.728;38.022;2023-02-15T18:22:59;4.10;;;1.08;;
75071;SDS011;63651;55.728;38.022;2023-02-15T18:28:01;1.10;;;0.68;;
75071;SDS011;63651;55.728;38.022;2023-02-15T18:33:02;1.10;;;0.55;;
75071;SDS011;63651;55.728;38.022;2023-02-15T18:38:04;1.98;;;0.60;;
75071;SDS011;63651;55.728;38.022;2023-02-15T18:43:07;3.67;;;0.50;;
75071;SDS011;63651;55.728;38.022;2023-02-15T18:48:15;1.50;;;0.77;;
75071;SDS011;63651;55.728;38.022;2023-02-15T18:53:18;2.60;;;0.40;;
75071;SDS011;63651;55.728;38.022;2023-02-15T18:58:21;1.55;;;0.50;;
75071;SDS011;63651;55.728;38.022;2023-02-15T19:03:27;1.45;;;0.60;;
75071;SDS011;63651;55.728;38.022;2023-02-15T19:08:28;1.58;;;0.45;;
75071;SDS011;63651;55.728;38.022;2023-02-15T19:13:29;1.02;;;0.38;;
75071;SDS011;63651;55.728;38.022;2023-02-15T19:18:30;1.40;;;0.43;;
75071;SDS011;63651;55.728;38.022;2023-02-15T19:23:31;1.90;;;1.23;;
75071;SDS011;63651;55.728;38.022;2023-02-15T19:28:33;0.98;;;0.30;;
75071;SDS011;63651;55.728;38.022;2023-02-15T19:33:35;0.82;;;0.60;;
75071;SDS011;63651;55.728;38.022;2023-02-15T19:38:36;0.95;;;0.45;;
75071;SDS011;63651;55.728;38.022;2023-02-15T19:43:37;1.42;;;0.30;;
75071;SDS011;63651;55.728;38.022;2023-02-15T19:48:38;1.92;;;0.40;;
75071;SDS011;63651;55.728;38.022;2023-02-15T19:53:39;0.65;;;0.35;;
75071;SDS011;63651;55.728;38.022;2023-02-15T19:58:41;2.10;;;0.30;;
75071;SDS011;63651;55.728;38.022;2023-02-15T20:03:42;1.92;;;0.38;;
75071;SDS011;63651;55.728;38.022;2023-02-15T20:08:43;0.85;;;0.30;;
75071;SDS011;63651;55.728;38.022;2023-02-15T20:13:46;1.15;;;0.40;;
75071;SDS011;63651;55.728;38.022;2023-02-15T20:18:47;0.77;;;0.20;;
75071;SDS011;63651;55.728;38.022;2023-02-15T20:23:48;1.00;;;0.25;;
75071;SDS011;63651;55.728;38.022;2023-02-15T20:28:49;1.42;;;0.73;;
75071;SDS011;63651;55.728;38.022;2023-02-15T20:33:50;1.13;;;0.20;;
75071;SDS011;63651;55.728;38.022;2023-02-15T20:38:52;0.95;;;0.22;;
75071;SDS011;63651;55.728;38.022;2023-02-15T20:43:53;1.98;;;0.73;;
75071;SDS011;63651;55.728;38.022;2023-02-15T20:48:54;3.70;;;0.40;;
75071;SDS011;63651;55.728;38.022;2023-02-15T20:53:55;0.73;;;0.17;;
75071;SDS011;63651;55.728;38.022;2023-02-15T20:58:56;1.08;;;0.35;;
75071;SDS011;63651;55.728;38.022;2023-02-15T21:03:58;0.80;;;0.22;;
75071;SDS011;63651;55.728;38.022;2023-02-15T21:08:59;0.52;;;0.13;;
75071;SDS011;63651;55.728;38.022;2023-02-15T21:14:01;0.93;;;0.22;;
75071;SDS011;63651;55.728;38.022;2023-02-15T21:19:05;1.13;;;0.40;;
75071;SDS011;63651;55.728;38.022;2023-02-15T21:24:15;1.08;;;0.30;;
75071;SDS011;63651;55.728;38.022;2023-02-15T21:29:22;0.80;;;0.22;;
75071;SDS011;63651;55.728;38.022;2023-02-15T21:34:28;0.93;;;0.20;;
75071;SDS011;63651;55.728;38.022;2023-02-15T21:39:29;0.63;;;0.25;;
75071;SDS011;63651;55.728;38.022;2023-02-15T21:44:35;1.30;;;0.20;;
75071;SDS011;63651;55.728;38.022;2023-02-15T21:49:55;0.60;;;0.20;;
75071;SDS011;63651;55.728;38.022;2023-02-15T21:54:56;0.50;;;0.20;;
75071;SDS011;63651;55.728;38.022;2023-02-15T21:59:57;0.63;;;0.20;;
75071;SDS011;63651;55.728;38.022;2023-02-15T22:04:58;0.45;;;0.10;;
75071;SDS011;63651;55.728;38.022;2023-02-15T22:09:59;0.50;;;0.20;;
75071;SDS011;63651;55.728;38.022;2023-02-15T22:15:00;0.40;;;0.10;;
75071;SDS011;63651;55.728;38.022;2023-02-15T22:20:04;1.58;;;0.30;;
75071;SDS011;63651;55.728;38.022;2023-02-15T22:25:17;1.30;;;0.38;;
75071;SDS011;63651;55.728;38.022;2023-02-15T22:35:25;0.40;;;0.15;;
75071;SDS011;63651;55.728;38.022;2023-02-15T22:40:29;0.55;;;0.20;;
75071;SDS011;63651;55.728;38.022;2023-02-15T22:45:33;1.00;;;0.40;;
75071;SDS011;63651;55.728;38.022;2023-02-15T22:50:35;0.93;;;0.40;;
75071;SDS011;63651;55.728;38.022;2023-02-15T22:55:36;1.35;;;0.80;;
75071;SDS011;63651;55.728;38.022;2023-02-15T23:00:38;1.85;;;0.70;;
75071;SDS011;63651;55.728;38.022;2023-02-15T23:05:40;0.73;;;0.47;;
75071;SDS011;63651;55.728;38.022;2023-02-15T23:10:41;0.80;;;0.43;;
75071;SDS011;63651;55.728;38.022;2023-02-15T23:15:45;1.33;;;0.60;;
75071;SDS011;63651;55.728;38.022;2023-02-15T23:25:53;0.82;;;0.30;;
75071;SDS011;63651;55.728;38.022;2023-02-15T23:30:55;0.70;;;0.20;;
75071;SDS011;63651;55.728;38.022;2023-02-15T23:35:58;0.77;;;0.30;;
75071;SDS011;63651;55.728;38.022;2023-02-15T23:40:59;0.47;;;0.30;;
75071;SDS011;63651;55.728;38.022;2023-02-15T23:56:55;1.25;;;0.38;;
